createdAt,value
2023-04-19T00:00:06.375Z,48.30
2023-04-19T00:03:10.298Z,48.10
2023-04-19T00:06:15.210Z,48.90
2023-04-19T00:09:17.216Z,47.90
2023-04-19T00:12:19.372Z,47.70
2023-04-19T00:15:21.426Z,47.90
2023-04-19T00:18:26.711Z,47.60
2023-04-19T00:21:28.736Z,47.40
2023-04-19T00:24:31.149Z,47.60
2023-04-19T00:27:33.573Z,47.90
2023-04-19T00:30:35.804Z,48.00
2023-04-19T00:33:38.891Z,48.20
2023-04-19T00:36:41.098Z,48.10
2023-04-19T00:39:43.192Z,48.30
2023-04-19T00:42:45.239Z,48.50
2023-04-19T00:45:48.517Z,48.50
2023-04-19T00:48:51.228Z,48.50
2023-04-19T00:51:53.573Z,48.20
2023-04-19T00:54:58.168Z,48.40
2023-04-19T00:58:02.625Z,47.90
2023-04-19T01:01:04.925Z,47.50
2023-04-19T01:04:07.037Z,46.80
2023-04-19T01:07:09.516Z,46.80
2023-04-19T01:10:11.598Z,46.20
2023-04-19T01:13:13.726Z,45.50
2023-04-19T01:16:15.968Z,45.00
2023-04-19T01:19:18.645Z,44.90
2023-04-19T01:22:23.166Z,44.80
2023-04-19T01:25:25.714Z,44.40
2023-04-19T01:28:27.766Z,44.30
2023-04-19T01:31:30.030Z,44.30
2023-04-19T01:34:32.175Z,44.30
2023-04-19T01:37:37.756Z,44.30
2023-04-19T01:40:39.715Z,43.80
2023-04-19T01:43:41.678Z,43.90
2023-04-19T01:46:43.703Z,43.40
2023-04-19T01:49:45.936Z,43.30
2023-04-19T01:52:48.040Z,43.20
2023-04-19T01:55:50.331Z,43.40
2023-04-19T01:58:52.370Z,43.50
2023-04-19T02:01:54.455Z,43.30
2023-04-19T02:04:57.352Z,43.20
2023-04-19T02:08:01.596Z,43.30
2023-04-19T02:11:08.816Z,43.70
2023-04-19T02:14:11.226Z,44.00
2023-04-19T02:17:13.444Z,44.10
2023-04-19T02:20:15.418Z,44.00
2023-04-19T02:23:17.388Z,44.00
2023-04-19T02:26:20.628Z,44.10
2023-04-19T02:29:22.660Z,44.70
2023-04-19T02:32:24.996Z,44.60
2023-04-19T02:35:27.053Z,45.00
2023-04-19T02:38:29.166Z,45.10
2023-04-19T02:41:31.276Z,44.90
2023-04-19T02:44:33.304Z,44.50
2023-04-19T02:47:35.336Z,44.60
2023-04-19T02:50:38.740Z,44.10
2023-04-19T02:53:40.947Z,44.40
2023-04-19T02:56:43.542Z,44.70
2023-04-19T02:59:45.547Z,44.50
2023-04-19T03:02:47.756Z,45.00
2023-04-19T03:05:49.917Z,44.70
2023-04-19T03:08:51.995Z,44.20
2023-04-19T03:11:54.041Z,44.40
2023-04-19T03:14:56.169Z,44.20
2023-04-19T03:17:58.329Z,44.40
2023-04-19T03:21:00.389Z,43.80
2023-04-19T03:24:02.704Z,43.40
2023-04-19T03:27:04.775Z,43.20
2023-04-19T03:30:07.850Z,42.90
2023-04-19T03:33:09.906Z,42.90
2023-04-19T03:36:12.501Z,42.90
2023-04-19T03:39:14.545Z,42.70
2023-04-19T03:42:16.561Z,43.30
2023-04-19T03:45:18.708Z,43.30
2023-04-19T03:48:20.840Z,42.90
2023-04-19T03:51:22.892Z,43.50
2023-04-19T03:54:24.933Z,43.40
2023-04-19T03:57:26.931Z,43.20
2023-04-19T04:00:29.056Z,43.00
2023-04-19T04:03:31.375Z,43.20
2023-04-19T04:06:33.699Z,43.00
2023-04-19T04:09:35.669Z,43.50
2023-04-19T04:12:37.822Z,43.30
2023-04-19T04:15:44.033Z,43.80
2023-04-19T04:18:53.356Z,43.30
2023-04-19T04:21:55.618Z,42.80
2023-04-19T04:24:58.284Z,44.20
2023-04-19T04:28:00.276Z,45.00
2023-04-19T04:31:02.367Z,44.20
2023-04-19T04:34:04.483Z,45.10
2023-04-19T04:37:07.543Z,45.90
2023-04-19T04:40:10.242Z,47.40
2023-04-19T04:43:13.645Z,47.70
2023-04-19T04:46:15.824Z,48.50
2023-04-19T04:49:17.896Z,48.90
2023-04-19T04:52:19.942Z,49.50
2023-04-19T04:55:22.080Z,49.60
2023-04-19T04:58:24.130Z,49.20
2023-04-19T05:01:26.305Z,49.20
2023-04-19T05:04:28.364Z,49.00
2023-04-19T05:07:30.405Z,48.80
2023-04-19T05:10:32.631Z,48.80
2023-04-19T05:13:35.439Z,49.50
2023-04-19T05:16:37.430Z,49.20
2023-04-19T05:19:39.557Z,48.90
2023-04-19T05:22:41.598Z,49.40
2023-04-19T05:25:43.725Z,49.20
2023-04-19T05:28:46.090Z,49.20
2023-04-19T05:31:48.374Z,50.00
2023-04-19T05:34:50.833Z,50.00
2023-04-19T05:37:53.029Z,50.10
2023-04-19T05:40:55.056Z,51.10
2023-04-19T05:43:57.065Z,51.70
2023-04-19T05:46:59.062Z,52.40
2023-04-19T05:50:01.153Z,53.00
2023-04-19T05:53:03.851Z,53.40
2023-04-19T05:56:06.001Z,53.50
2023-04-19T05:59:08.534Z,53.80
2023-04-19T06:02:11.115Z,53.50
2023-04-19T06:05:13.667Z,54.10
2023-04-19T06:08:17.039Z,54.20
2023-04-19T06:11:26.355Z,54.20
2023-04-19T06:14:33.600Z,53.60
2023-04-19T06:17:35.636Z,53.20
2023-04-19T06:20:38.407Z,53.10
2023-04-19T06:23:40.492Z,52.40
2023-04-19T06:26:43.364Z,50.50
2023-04-19T06:29:47.589Z,48.40
2023-04-19T06:32:50.711Z,46.40
2023-04-19T06:35:53.004Z,45.50
2023-04-19T06:38:55.038Z,43.60
2023-04-19T06:41:57.081Z,42.30
2023-04-19T06:44:59.164Z,40.70
2023-04-19T06:48:02.093Z,40.60
2023-04-19T06:51:04.408Z,39.70
2023-04-19T06:54:07.735Z,39.30
2023-04-19T06:57:09.916Z,40.50
2023-04-19T07:00:13.941Z,39.50
2023-04-19T07:03:15.899Z,39.70
2023-04-19T07:06:17.965Z,38.10
2023-04-19T07:09:20.096Z,38.80
2023-04-19T07:12:28.880Z,38.80
2023-04-19T07:15:31.094Z,38.70
2023-04-19T07:18:33.108Z,38.80
2023-04-19T07:21:35.757Z,37.30
2023-04-19T07:24:40.335Z,37.30
2023-04-19T07:27:44.922Z,36.90
2023-04-19T07:30:46.981Z,36.90
2023-04-19T07:33:49.095Z,34.70
2023-04-19T07:36:51.125Z,31.30
2023-04-19T07:39:53.189Z,31.10
2023-04-19T07:42:56.045Z,31.50
2023-04-19T07:45:58.142Z,30.60
2023-04-19T07:49:00.207Z,30.60
2023-04-19T07:52:03.047Z,32.10
2023-04-19T07:55:05.549Z,31.20
2023-04-19T07:58:07.743Z,32.90
2023-04-19T08:01:09.861Z,31.40
2023-04-19T08:04:12.146Z,31.10
2023-04-19T08:07:14.295Z,30.80
2023-04-19T08:10:16.474Z,30.10
2023-04-19T08:13:18.462Z,30.30
2023-04-19T08:16:56.240Z,29.20
2023-04-19T08:19:43.065Z,28.50
2023-04-19T08:22:45.729Z,28.50
2023-04-19T08:25:47.860Z,27.60
2023-04-19T08:28:52.403Z,26.70
2023-04-19T08:31:54.573Z,27.20
2023-04-19T08:34:57.531Z,27.00
2023-04-19T08:37:59.647Z,26.20
2023-04-19T08:41:01.898Z,25.50
2023-04-19T08:44:05.152Z,25.10
2023-04-19T08:47:09.050Z,25.40
2023-04-19T08:50:24.069Z,24.90
2023-04-19T08:53:31.396Z,26.00
2023-04-19T08:56:35.788Z,26.70
2023-04-19T08:59:38.435Z,26.70
2023-04-19T09:02:51.505Z,26.80
2023-04-19T09:05:55.026Z,26.90
2023-04-19T09:12:24.758Z,25.40
2023-04-19T09:15:41.949Z,24.80
2023-04-19T09:19:08.135Z,24.60
2023-04-19T09:22:18.179Z,25.40
2023-04-19T09:25:37.808Z,25.80
2023-04-19T09:28:59.338Z,26.00
2023-04-19T09:32:01.515Z,25.00
2023-04-19T09:35:04.057Z,24.70
2023-04-19T09:38:07.136Z,25.00
2023-04-19T09:41:10.745Z,26.60
2023-04-19T09:47:30.222Z,26.00
2023-04-19T09:50:33.813Z,25.30
2023-04-19T09:53:40.152Z,25.60
2023-04-19T09:56:42.849Z,24.60
2023-04-19T09:59:44.794Z,26.30
2023-04-19T10:02:54.724Z,24.70
2023-04-19T10:05:57.962Z,25.00
2023-04-19T10:09:05.332Z,24.80
2023-04-19T10:12:25.081Z,23.50
2023-04-19T10:15:49.356Z,24.50
2023-04-19T10:18:53.879Z,23.40
2023-04-19T10:21:56.682Z,23.40
2023-04-19T10:25:11.854Z,22.90
2023-04-19T10:28:16.023Z,25.30
2023-04-19T10:31:24.035Z,25.00
2023-04-19T10:34:39.930Z,24.30
2023-04-19T10:37:42.158Z,23.90
2023-04-19T10:40:57.367Z,23.20
2023-04-19T10:43:59.292Z,22.10
2023-04-19T10:47:01.465Z,22.10
2023-04-19T10:50:05.232Z,20.90
2023-04-19T10:53:44.648Z,22.60
2023-04-19T10:57:06.800Z,21.00
2023-04-19T11:00:22.147Z,21.00
2023-04-19T11:03:42.928Z,19.70
2023-04-19T11:06:51.842Z,20.80
2023-04-19T11:09:53.980Z,20.50
2023-04-19T11:12:56.064Z,20.20
2023-04-19T11:15:59.596Z,22.00
2023-04-19T11:19:01.919Z,23.00
2023-04-19T11:22:04.675Z,23.20
2023-04-19T11:25:19.248Z,22.30
2023-04-19T11:28:24.477Z,22.20
2023-04-19T11:31:26.872Z,23.20
2023-04-19T11:34:29.036Z,23.40
2023-04-19T11:37:36.463Z,25.00
2023-04-19T11:40:39.710Z,25.70
2023-04-19T11:43:45.262Z,27.10
2023-04-19T11:47:05.293Z,28.80
2023-04-19T11:50:39.231Z,29.50
2023-04-19T11:53:41.239Z,30.10
2023-04-19T11:57:03.842Z,32.00
2023-04-19T12:00:12.771Z,30.80
2023-04-19T12:03:15.459Z,29.90
2023-04-19T12:06:25.663Z,29.80
2023-04-19T12:09:27.979Z,31.30
2023-04-19T12:12:33.336Z,33.00
2023-04-19T12:15:42.989Z,34.80
2023-04-19T12:18:50.510Z,36.80
2023-04-19T12:21:53.722Z,37.10
2023-04-19T12:24:56.208Z,35.60
2023-04-19T12:27:59.166Z,35.30
2023-04-19T12:31:01.191Z,35.30
2023-04-19T12:34:03.296Z,34.50
2023-04-19T12:37:05.392Z,33.30
2023-04-19T12:40:08.250Z,33.10
2023-04-19T12:43:10.456Z,32.20
2023-04-19T12:46:13.368Z,32.70
2023-04-19T12:49:17.981Z,33.80
2023-04-19T12:52:20.065Z,37.80
2023-04-19T12:55:22.305Z,36.00
2023-04-19T12:58:25.226Z,38.00
2023-04-19T13:01:27.402Z,38.10
2023-04-19T13:04:29.687Z,38.30
2023-04-19T13:07:31.863Z,40.10
2023-04-19T13:10:33.954Z,40.60
2023-04-19T13:13:36.119Z,39.00
2023-04-19T13:16:38.236Z,37.60
2023-04-19T13:19:40.518Z,36.90
2023-04-19T13:22:42.556Z,36.90
2023-04-19T13:25:44.544Z,36.50
2023-04-19T13:28:46.613Z,38.10
2023-04-19T13:31:49.613Z,38.40
2023-04-19T13:34:52.083Z,38.30
2023-04-19T13:37:54.258Z,39.90
2023-04-19T13:40:56.357Z,41.50
2023-04-19T13:43:58.454Z,43.10
2023-04-19T13:47:01.012Z,44.40
2023-04-19T13:50:03.260Z,45.60
2023-04-19T13:53:05.449Z,46.70
2023-04-19T13:56:11.012Z,46.90
2023-04-19T13:59:13.231Z,46.00
2023-04-19T14:02:15.360Z,47.10
2023-04-19T14:05:17.638Z,46.90
2023-04-19T14:08:19.690Z,47.00
2023-04-19T14:11:21.849Z,47.30
2023-04-19T14:14:23.884Z,47.70
2023-04-19T14:17:26.429Z,49.20
2023-04-19T14:20:28.665Z,49.70
2023-04-19T14:23:30.766Z,50.60
2023-04-19T14:26:32.731Z,48.70
2023-04-19T14:29:34.840Z,49.70
2023-04-19T14:32:37.281Z,50.60
2023-04-19T14:35:41.023Z,49.40
2023-04-19T14:38:42.997Z,47.90
2023-04-19T14:41:45.093Z,48.60
2023-04-19T14:44:47.572Z,47.20
2023-04-19T14:47:49.558Z,47.80
2023-04-19T14:50:51.657Z,49.60
2023-04-19T14:53:53.680Z,50.80
2023-04-19T14:56:55.817Z,49.50
2023-04-19T14:59:58.454Z,50.70
2023-04-19T15:03:01.424Z,51.60
2023-04-19T15:06:04.601Z,51.70
2023-04-19T15:09:06.598Z,50.90
2023-04-19T15:12:09.722Z,50.40
2023-04-19T15:15:12.024Z,51.90
2023-04-19T15:18:14.013Z,51.90
2023-04-19T15:21:18.892Z,54.60
2023-04-19T15:24:20.946Z,55.30
2023-04-19T15:27:22.996Z,54.40
2023-04-19T15:30:25.028Z,53.50
2023-04-19T15:33:27.607Z,54.50
2023-04-19T15:36:31.201Z,55.70
2023-04-19T15:39:33.291Z,56.20
2023-04-19T15:42:35.685Z,56.10
2023-04-19T15:45:37.832Z,54.70
2023-04-19T15:48:40.505Z,52.70
2023-04-19T15:51:42.566Z,53.10
2023-04-19T15:54:44.687Z,52.50
2023-04-19T15:57:49.853Z,54.00
2023-04-19T16:00:52.067Z,53.20
2023-04-19T16:03:54.323Z,54.30
2023-04-19T16:06:56.532Z,54.50
2023-04-19T16:09:58.622Z,53.90
2023-04-19T16:13:01.457Z,54.80
2023-04-19T16:16:03.560Z,54.70
2023-04-19T16:19:05.608Z,57.00
2023-04-19T16:22:07.647Z,56.70
2023-04-19T16:25:11.568Z,56.80
2023-04-19T16:28:14.078Z,56.90
2023-04-19T16:31:16.191Z,57.80
2023-04-19T16:34:19.156Z,58.50
2023-04-19T16:37:21.426Z,59.50
2023-04-19T16:40:23.690Z,57.90
2023-04-19T16:43:25.638Z,57.20
2023-04-19T16:46:28.016Z,58.40
2023-04-19T16:49:30.096Z,60.00
2023-04-19T16:52:35.008Z,58.80
2023-04-19T16:55:38.158Z,57.70
2023-04-19T16:58:40.587Z,57.30
2023-04-19T17:01:44.382Z,57.20
2023-04-19T17:04:46.773Z,58.60
2023-04-19T17:07:50.177Z,57.00
2023-04-19T17:10:54.103Z,57.80
2023-04-19T17:13:56.881Z,60.00
2023-04-19T17:16:58.990Z,57.90
2023-04-19T17:20:01.354Z,60.00
2023-04-19T17:23:03.476Z,60.00
2023-04-19T17:26:05.898Z,60.60
2023-04-19T17:29:09.009Z,60.40
2023-04-19T17:32:11.115Z,62.60
2023-04-19T17:35:13.189Z,62.60
2023-04-19T17:38:15.219Z,63.10
2023-04-19T17:41:17.289Z,64.00
2023-04-19T17:44:19.309Z,64.30
2023-04-19T17:47:21.516Z,64.90
2023-04-19T17:50:23.779Z,65.70
2023-04-19T17:53:25.780Z,65.60
2023-04-19T17:56:28.520Z,66.40
2023-04-19T17:59:30.567Z,67.00
2023-04-19T18:02:32.777Z,67.10
2023-04-19T18:05:34.978Z,66.00
2023-04-19T18:08:37.232Z,67.60
2023-04-19T18:11:39.960Z,68.10
2023-04-19T18:14:42.042Z,68.10
2023-04-19T18:17:44.169Z,69.10
2023-04-19T18:20:46.460Z,70.90
2023-04-19T18:23:48.743Z,72.00
2023-04-19T18:26:50.838Z,72.10
2023-04-19T18:29:53.189Z,73.60
2023-04-19T18:32:56.221Z,73.80
2023-04-19T18:35:58.434Z,73.20
2023-04-19T18:39:00.518Z,72.70
2023-04-19T18:42:03.150Z,73.30
2023-04-19T18:45:06.127Z,73.70
2023-04-19T18:48:08.440Z,73.60
2023-04-19T18:51:11.267Z,73.50
2023-04-19T18:54:13.415Z,73.70
2023-04-19T19:00:21.886Z,74.00
2023-04-19T19:06:29.235Z,75.10
2023-04-19T19:09:31.445Z,75.60
2023-04-19T19:12:33.527Z,76.50
2023-04-19T19:15:36.948Z,76.60
2023-04-19T19:18:39.140Z,76.00
2023-04-19T19:21:41.332Z,77.50
2023-04-19T19:24:43.564Z,79.00
2023-04-19T19:28:02.802Z,78.90
2023-04-19T19:31:08.921Z,79.10
2023-04-19T19:34:25.253Z,80.00
2023-04-19T19:37:29.807Z,80.40
2023-04-19T19:40:32.819Z,81.60
2023-04-19T19:43:35.211Z,82.10
2023-04-19T19:46:38.750Z,84.30
2023-04-19T19:49:57.567Z,83.70
2023-04-19T19:53:03.554Z,84.50
2023-04-19T19:56:13.038Z,84.50
2023-04-19T20:02:22.483Z,86.00
2023-04-19T20:05:25.057Z,86.70
2023-04-19T20:08:28.550Z,87.70
2023-04-19T20:11:30.670Z,87.70
2023-04-19T20:14:36.184Z,87.50
2023-04-19T20:17:40.513Z,87.40
2023-04-19T20:20:42.603Z,86.30
2023-04-19T20:23:44.831Z,86.80
2023-04-19T20:26:46.833Z,86.00
2023-04-19T20:29:48.906Z,86.40
2023-04-19T20:32:51.030Z,85.70
2023-04-19T20:35:53.698Z,84.90
2023-04-19T20:38:58.778Z,86.00
2023-04-19T20:42:01.463Z,85.50
2023-04-19T20:45:04.296Z,85.50
2023-04-19T20:48:08.646Z,85.50
2023-04-19T20:51:12.822Z,85.20
2023-04-19T20:54:14.845Z,85.60
2023-04-19T20:57:16.853Z,85.20
2023-04-19T21:00:19.112Z,85.90
2023-04-19T21:03:22.391Z,86.40
2023-04-19T21:06:24.585Z,87.30
2023-04-19T21:09:26.702Z,88.40
2023-04-19T21:12:28.897Z,88.70
2023-04-19T21:15:31.167Z,89.20
2023-04-19T21:18:33.322Z,89.40
2023-04-19T21:21:35.847Z,90.50
2023-04-19T21:24:37.847Z,90.40
2023-04-19T21:27:41.356Z,90.40
2023-04-19T21:30:43.508Z,90.40
2023-04-19T21:33:46.378Z,90.80
2023-04-19T21:36:48.424Z,91.00
2023-04-19T21:39:50.525Z,91.00
2023-04-19T21:43:07.269Z,91.10
2023-04-19T21:46:09.484Z,91.40
2023-04-19T21:49:11.613Z,91.40
2023-04-19T21:52:14.098Z,91.90
2023-04-19T21:55:16.276Z,91.80
2023-04-19T21:58:19.009Z,91.50
2023-04-19T22:01:22.065Z,92.10
2023-04-19T22:04:24.347Z,91.80
2023-04-19T22:07:30.376Z,92.10
2023-04-19T22:10:34.265Z,91.70
2023-04-19T22:13:41.126Z,91.70
2023-04-19T22:16:43.856Z,91.40
2023-04-19T22:19:46.846Z,91.40
2023-04-19T22:22:48.919Z,91.50
2023-04-19T22:25:51.023Z,91.20
2023-04-19T22:28:54.348Z,90.90
2023-04-19T22:31:56.356Z,90.60
2023-04-19T22:34:58.326Z,90.70
2023-04-19T22:38:00.513Z,90.60
2023-04-19T22:41:02.646Z,90.50
2023-04-19T22:44:04.826Z,90.50
2023-04-19T22:47:07.834Z,90.40
2023-04-19T22:50:10.493Z,90.50
2023-04-19T22:53:13.462Z,90.80
2023-04-19T22:56:15.583Z,90.20
2023-04-19T22:59:18.083Z,89.80
2023-04-19T23:02:20.420Z,89.70
2023-04-19T23:05:22.529Z,89.60
2023-04-19T23:08:25.069Z,90.00
2023-04-19T23:11:29.962Z,90.20
2023-04-19T23:14:33.003Z,90.00
2023-04-19T23:17:35.184Z,90.10
2023-04-19T23:20:37.741Z,90.10
2023-04-19T23:23:39.984Z,90.20
2023-04-19T23:26:42.058Z,90.10
2023-04-19T23:29:44.369Z,90.00
2023-04-19T23:32:46.464Z,89.90
2023-04-19T23:35:48.593Z,90.20
2023-04-19T23:38:50.684Z,90.20
2023-04-19T23:41:52.734Z,90.10
2023-04-19T23:44:55.742Z,90.70
2023-04-19T23:47:57.802Z,90.80
2023-04-19T23:50:59.867Z,91.00
2023-04-19T23:54:01.923Z,91.20
2023-04-19T23:57:04.095Z,91.50
